Abbott
UTM 11U Easting = 46 4305, Northing = 56 77958     Elevation = 2130 m
Note to Users: This site contains raw data and is presented "as is" and in real time. Although reasonable care is exercised in providing this information, inaccuracies or omissions may occur due to the properties of weather and data collection systems. The Avalanche Control Section, responsible for its collection, disclaims all responsibility for the accuracy of the information.
Date Max Temp (deg C) Min Temp (deg C) Rel Hum (%) 1 Hr Precip (mm) HS (cm) Wind Dir (1 Hr Avg) Wind Spd (kph) (1 Hr Avg) Max Wind Speed (kph)
2019-05-18 19:00 0 0 83 0.0 140 SE 20 36
2019-05-18 20:00 0 0 80 0.0 140 SE 24 36
2019-05-18 21:00 0 0 78 0.0 139 SE 30 48
2019-05-18 22:00 0 0 73 0.0 139 SE 36 48
2019-05-18 23:00 0 -1 73 0.0 139 SE 33 51
2019-05-19 00:00 0 -1 72 0.0 139 SE 28 44
2019-05-19 01:00 -1 -1 71 0.0 139 SE 23 43
2019-05-19 02:00 -1 -1 71 0.0 139 SE 25 45
2019-05-19 03:00 -1 -1 69 0.0 139 SE 32 47
2019-05-19 04:00 -1 -1 68 0.0 139 SE 27 42
2019-05-19 05:00 -1 -1 66 0.0 139 SE 28 46
2019-05-19 06:00 0 -1 64 0.0 139 SE 34 51
2019-05-19 07:00 0 -1 63 0.0 139 SE 37 56
2019-05-19 08:00 0 -1 63 0.0 139 SE 33 53
2019-05-19 09:00 0 -1 65 0.0 139 SE 30 50
2019-05-19 10:00 0 0 63 0.0 139 SE 37 59
2019-05-19 11:00 1 0 63 0.0 139 SE 31 45
2019-05-19 12:00 2 1 63 0.0 139 SE 30 58
2019-05-19 13:00 3 2 61 0.0 138 S 26 39
2019-05-19 14:00 4 3 59 0.0 138 S 23 34
2019-05-19 15:00 5 3 54 0.0 137 SE 15 40
2019-05-19 16:00 5 4 53 0.0 137 SE 19 38
2019-05-19 17:00 5 4 52 0.0 137 SE 27 44
2019-05-19 18:00 4 4 52 0.0 137 SE 35 55